createdAt,value
2017-11-30T00:00:07.187Z,90.90
2017-11-30T00:02:34.931Z,91.00
2017-11-30T00:05:02.575Z,91.10
2017-11-30T00:07:30.010Z,91.10
2017-11-30T00:09:57.447Z,91.10
2017-11-30T00:12:24.890Z,91.10
2017-11-30T00:14:52.440Z,91.00
2017-11-30T00:17:19.869Z,91.00
2017-11-30T00:19:47.289Z,90.90
2017-11-30T00:22:14.744Z,90.90
2017-11-30T00:24:42.266Z,91.00
2017-11-30T00:27:09.738Z,91.00
2017-11-30T00:29:37.179Z,91.00
2017-11-30T00:32:04.619Z,90.80
2017-11-30T00:34:32.170Z,90.80
2017-11-30T00:36:59.587Z,90.90
2017-11-30T00:39:27.127Z,90.90
2017-11-30T00:41:54.571Z,90.80
2017-11-30T00:44:32.816Z,90.80
2017-11-30T00:47:00.247Z,90.70
2017-11-30T00:49:27.683Z,90.60
2017-11-30T00:51:55.898Z,90.70
2017-11-30T00:54:23.343Z,90.60
2017-11-30T00:56:51.127Z,90.70
2017-11-30T00:59:18.604Z,90.70
2017-11-30T01:01:46.137Z,90.70
2017-11-30T01:04:13.579Z,90.80
2017-11-30T01:06:41.007Z,90.80
2017-11-30T01:09:08.454Z,90.90
2017-11-30T01:11:35.896Z,91.00
2017-11-30T01:14:03.325Z,91.00
2017-11-30T01:16:30.783Z,91.10
2017-11-30T01:18:58.290Z,91.00
2017-11-30T01:21:27.802Z,91.00
2017-11-30T01:23:55.350Z,91.10
2017-11-30T01:26:23.135Z,91.00
2017-11-30T01:28:50.582Z,90.90
2017-11-30T01:31:18.054Z,91.00
2017-11-30T01:33:45.481Z,91.10
2017-11-30T01:36:12.936Z,91.00
2017-11-30T01:38:40.387Z,91.00
2017-11-30T01:41:07.828Z,91.00
2017-11-30T01:43:35.285Z,91.00
2017-11-30T01:46:02.710Z,90.90
2017-11-30T01:48:30.137Z,90.90
2017-11-30T01:50:57.596Z,91.10
2017-11-30T01:53:25.160Z,91.10
2017-11-30T01:55:52.666Z,90.80
2017-11-30T01:58:20.121Z,91.10
2017-11-30T02:00:47.566Z,90.90
2017-11-30T02:03:14.990Z,90.90
2017-11-30T02:05:42.917Z,90.90
2017-11-30T02:08:10.791Z,91.10
2017-11-30T02:10:38.662Z,91.10
2017-11-30T02:13:06.533Z,91.10
2017-11-30T02:15:33.999Z,91.10
2017-11-30T02:18:01.712Z,91.20
2017-11-30T02:20:29.330Z,91.30
2017-11-30T02:22:56.781Z,91.30
2017-11-30T02:25:24.246Z,91.40
2017-11-30T02:27:51.695Z,91.40
2017-11-30T02:30:19.186Z,91.30
2017-11-30T02:32:46.637Z,91.40
2017-11-30T02:35:14.073Z,91.20
2017-11-30T02:37:41.515Z,91.20
2017-11-30T02:40:09.023Z,91.30
2017-11-30T02:42:36.468Z,91.20
2017-11-30T02:45:03.892Z,91.20
2017-11-30T02:47:31.326Z,91.10
2017-11-30T02:49:58.876Z,91.20
2017-11-30T02:52:26.315Z,91.30
2017-11-30T02:54:53.784Z,91.20
2017-11-30T02:57:21.214Z,91.20
2017-11-30T02:59:49.518Z,91.50
2017-11-30T03:02:16.973Z,91.10
2017-11-30T03:04:44.418Z,91.10
2017-11-30T03:07:12.310Z,91.10
2017-11-30T03:09:39.746Z,91.10
2017-11-30T03:12:07.178Z,91.10
2017-11-30T03:14:35.523Z,91.00
2017-11-30T03:17:02.949Z,91.00
2017-11-30T03:19:30.437Z,91.00
2017-11-30T03:21:57.936Z,91.10
2017-11-30T03:24:25.365Z,91.10
2017-11-30T03:26:52.805Z,91.00
2017-11-30T03:29:20.259Z,90.90
2017-11-30T03:31:47.755Z,90.90
2017-11-30T03:34:15.205Z,90.80
2017-11-30T03:36:43.025Z,90.80
2017-11-30T03:39:10.527Z,90.70
2017-11-30T03:41:38.010Z,90.80
2017-11-30T03:44:05.446Z,90.70
2017-11-30T03:46:32.923Z,90.70
2017-11-30T03:49:00.354Z,90.60
2017-11-30T03:51:27.856Z,90.90
2017-11-30T03:53:55.326Z,90.90
2017-11-30T03:56:22.767Z,90.80
2017-11-30T03:58:50.265Z,91.00
2017-11-30T04:01:17.694Z,91.00
2017-11-30T04:03:45.133Z,91.30
2017-11-30T04:06:13.026Z,90.90
2017-11-30T04:08:40.453Z,91.00
2017-11-30T04:11:07.952Z,90.90
2017-11-30T04:13:35.415Z,90.90
2017-11-30T04:16:02.871Z,90.90
2017-11-30T04:18:30.321Z,90.90
2017-11-30T04:20:57.758Z,91.00
2017-11-30T04:23:25.338Z,91.10
2017-11-30T04:25:52.777Z,91.10
2017-11-30T04:28:20.226Z,91.20
2017-11-30T04:30:47.683Z,91.00
2017-11-30T04:33:15.466Z,91.00
2017-11-30T04:35:42.969Z,91.20
2017-11-30T04:38:10.420Z,91.40
2017-11-30T04:40:37.854Z,91.70
2017-11-30T04:43:05.347Z,91.70
2017-11-30T04:45:32.896Z,91.50
2017-11-30T04:48:00.335Z,91.00
2017-11-30T04:50:27.766Z,90.80
2017-11-30T04:52:55.280Z,90.60
2017-11-30T04:55:22.710Z,90.50
2017-11-30T04:57:50.134Z,90.30
2017-11-30T05:00:17.667Z,90.30
2017-11-30T05:02:45.099Z,90.20
2017-11-30T05:05:12.734Z,90.20
2017-11-30T05:07:40.942Z,90.30
2017-11-30T05:10:08.578Z,90.20
2017-11-30T05:12:36.112Z,90.30
2017-11-30T05:15:03.579Z,90.30
2017-11-30T05:17:31.013Z,90.50
2017-11-30T05:19:58.499Z,90.80
2017-11-30T05:22:25.934Z,90.70
2017-11-30T05:24:53.412Z,90.80
2017-11-30T05:27:20.882Z,90.90
2017-11-30T05:29:48.343Z,91.00
2017-11-30T05:32:15.894Z,91.20
2017-11-30T05:34:43.326Z,91.40
2017-11-30T05:37:10.783Z,91.60
2017-11-30T05:39:38.217Z,91.60
2017-11-30T05:42:05.659Z,91.60
2017-11-30T05:44:33.110Z,91.70
2017-11-30T05:47:00.542Z,91.50
2017-11-30T05:49:28.005Z,91.40
2017-11-30T05:51:55.497Z,91.30
2017-11-30T05:54:23.022Z,91.20
2017-11-30T05:56:50.477Z,91.40
2017-11-30T05:59:17.922Z,91.60
2017-11-30T06:01:45.445Z,91.80
2017-11-30T06:04:12.882Z,91.80
2017-11-30T06:06:40.322Z,91.60
2017-11-30T06:09:08.121Z,91.50
2017-11-30T06:11:35.620Z,91.60
2017-11-30T06:14:03.118Z,91.80
2017-11-30T06:16:30.570Z,91.80
2017-11-30T06:18:57.994Z,91.60
2017-11-30T06:21:25.443Z,91.50
2017-11-30T06:23:52.888Z,91.60
2017-11-30T06:26:20.392Z,91.40
2017-11-30T06:28:47.819Z,91.40
2017-11-30T06:31:15.264Z,91.20
2017-11-30T06:33:42.711Z,91.30
2017-11-30T06:36:10.215Z,91.30
2017-11-30T06:38:37.669Z,91.40
2017-11-30T06:41:05.210Z,91.40
2017-11-30T06:43:32.650Z,91.70
2017-11-30T06:46:00.110Z,91.40
2017-11-30T06:48:27.579Z,91.50
2017-11-30T06:50:55.039Z,91.60
2017-11-30T06:53:22.478Z,91.70
2017-11-30T06:55:49.971Z,91.80
2017-11-30T06:58:17.439Z,91.90
2017-11-30T07:00:45.177Z,91.90
2017-11-30T07:03:12.621Z,92.20
2017-11-30T07:05:40.566Z,91.90
2017-11-30T07:08:08.034Z,92.00
2017-11-30T07:10:35.503Z,92.00
2017-11-30T07:13:02.952Z,92.00
2017-11-30T07:15:30.414Z,92.00
2017-11-30T07:17:57.851Z,92.20
2017-11-30T07:20:25.292Z,92.10
2017-11-30T07:22:52.743Z,91.80
2017-11-30T07:25:20.196Z,91.60
2017-11-30T07:27:47.738Z,91.60
2017-11-30T07:30:15.177Z,91.60
2017-11-30T07:32:42.619Z,91.50
2017-11-30T07:35:10.070Z,91.60
2017-11-30T07:37:37.589Z,91.90
2017-11-30T07:40:05.049Z,91.90
2017-11-30T07:42:32.494Z,91.70
2017-11-30T07:44:59.937Z,91.70
2017-11-30T07:47:27.393Z,91.60
2017-11-30T07:49:54.967Z,91.50
2017-11-30T07:52:22.429Z,91.40
2017-11-30T07:54:49.872Z,91.40
2017-11-30T07:57:18.003Z,91.10
2017-11-30T07:59:45.463Z,91.00
2017-11-30T08:02:13.034Z,90.90
2017-11-30T08:04:40.863Z,90.80
2017-11-30T08:07:08.288Z,91.00
2017-11-30T08:09:35.725Z,91.00
2017-11-30T08:12:03.261Z,91.00
2017-11-30T08:14:30.709Z,91.00
2017-11-30T08:16:58.202Z,90.90
2017-11-30T08:19:26.038Z,91.00
2017-11-30T08:21:53.529Z,91.20
2017-11-30T08:24:20.996Z,90.90
2017-11-30T08:26:48.435Z,91.00
2017-11-30T08:29:15.919Z,90.80
2017-11-30T08:31:43.362Z,90.70
2017-11-30T08:34:10.789Z,90.60
2017-11-30T08:36:38.278Z,90.50
2017-11-30T08:39:05.758Z,90.00
2017-11-30T08:41:33.214Z,89.30
2017-11-30T08:44:00.689Z,89.10
2017-11-30T08:46:28.124Z,89.20
2017-11-30T08:48:55.576Z,88.50
2017-11-30T08:51:23.070Z,88.20
2017-11-30T08:53:50.937Z,88.30
2017-11-30T08:56:18.371Z,88.60
2017-11-30T08:58:45.809Z,88.80
2017-11-30T09:01:13.266Z,88.50
2017-11-30T09:03:40.701Z,88.30
2017-11-30T09:06:08.145Z,88.20
2017-11-30T09:08:35.683Z,88.40
2017-11-30T09:11:03.145Z,87.90
2017-11-30T09:13:30.631Z,87.50
2017-11-30T09:15:58.484Z,87.00
2017-11-30T09:21:09.557Z,86.30
2017-11-30T09:23:37.251Z,86.50
2017-11-30T09:26:05.150Z,86.80
2017-11-30T09:28:32.590Z,86.70
2017-11-30T09:31:00.026Z,86.70
2017-11-30T09:33:27.514Z,86.50
2017-11-30T09:35:54.949Z,86.90
2017-11-30T09:38:22.434Z,88.00
2017-11-30T09:40:49.897Z,87.50
2017-11-30T09:43:17.353Z,87.30
2017-11-30T09:45:44.999Z,87.60
2017-11-30T09:48:12.438Z,87.70
2017-11-30T09:50:40.158Z,88.50
2017-11-30T09:53:07.609Z,87.90
2017-11-30T09:55:35.711Z,88.50
2017-11-30T09:58:03.154Z,88.60
2017-11-30T10:00:30.588Z,88.60
2017-11-30T10:02:58.145Z,88.40
2017-11-30T10:05:25.589Z,88.40
2017-11-30T10:07:53.226Z,88.40
2017-11-30T10:10:20.698Z,88.50
2017-11-30T10:12:48.520Z,88.60
2017-11-30T10:15:15.972Z,88.10
2017-11-30T10:17:43.450Z,88.50
2017-11-30T10:20:10.919Z,89.30
2017-11-30T10:22:38.375Z,89.70
2017-11-30T10:25:05.811Z,89.60
2017-11-30T10:27:33.251Z,89.40
2017-11-30T10:30:00.711Z,89.40
2017-11-30T10:32:28.147Z,89.40
2017-11-30T10:34:55.607Z,89.40
2017-11-30T10:37:23.249Z,89.30
2017-11-30T10:39:50.667Z,89.40
2017-11-30T10:42:18.127Z,89.50
2017-11-30T10:44:45.582Z,90.00
2017-11-30T10:47:13.043Z,89.90
2017-11-30T10:49:40.510Z,89.70
2017-11-30T10:52:08.310Z,89.20
2017-11-30T10:54:35.809Z,89.40
2017-11-30T10:57:03.642Z,89.70
2017-11-30T10:59:31.129Z,89.60
2017-11-30T11:01:58.561Z,89.20
2017-11-30T11:04:26.038Z,88.40
2017-11-30T11:06:53.914Z,88.30
2017-11-30T11:09:21.372Z,88.20
2017-11-30T11:11:48.843Z,88.60
2017-11-30T11:14:16.277Z,88.60
2017-11-30T11:16:43.714Z,88.60
2017-11-30T11:19:11.291Z,89.90
2017-11-30T11:21:38.719Z,89.50
2017-11-30T11:24:06.523Z,89.20
2017-11-30T11:26:33.969Z,88.90
2017-11-30T11:29:01.580Z,88.50
2017-11-30T11:31:29.346Z,88.50
2017-11-30T11:33:56.799Z,88.00
2017-11-30T11:36:24.654Z,87.50
2017-11-30T11:38:52.136Z,87.00
2017-11-30T11:41:19.575Z,86.80
2017-11-30T11:43:47.099Z,86.80
2017-11-30T11:46:14.918Z,86.70
2017-11-30T11:48:42.426Z,86.60
2017-11-30T11:51:09.866Z,86.80
2017-11-30T11:53:37.373Z,87.00
2017-11-30T11:56:05.207Z,86.50
2017-11-30T11:58:33.008Z,85.90
2017-11-30T12:01:00.782Z,84.80
2017-11-30T12:03:28.382Z,84.50
2017-11-30T12:05:55.815Z,85.00
2017-11-30T12:08:23.338Z,85.60
2017-11-30T12:10:50.778Z,84.30
2017-11-30T12:13:18.630Z,80.30
2017-11-30T12:15:46.059Z,79.10
2017-11-30T12:18:13.490Z,77.70
2017-11-30T12:20:41.035Z,76.70
2017-11-30T12:23:08.477Z,77.60
2017-11-30T12:25:35.944Z,76.50
2017-11-30T12:28:03.437Z,74.00
2017-11-30T12:30:30.880Z,72.90
2017-11-30T12:32:58.361Z,74.20
2017-11-30T12:35:25.806Z,75.20
2017-11-30T12:37:53.249Z,75.50
2017-11-30T12:40:20.722Z,76.50
2017-11-30T12:42:48.267Z,77.50
2017-11-30T12:45:15.689Z,77.30
2017-11-30T12:47:43.138Z,77.20
2017-11-30T12:50:10.976Z,77.80
2017-11-30T12:52:38.510Z,78.40
2017-11-30T12:55:05.931Z,78.90
2017-11-30T12:57:33.383Z,79.40
2017-11-30T13:00:00.826Z,80.30
2017-11-30T13:02:28.263Z,80.20
2017-11-30T13:04:55.823Z,80.70
2017-11-30T13:07:23.258Z,81.60
2017-11-30T13:09:50.916Z,82.20
2017-11-30T13:12:18.552Z,82.40
2017-11-30T13:14:46.295Z,82.60
2017-11-30T13:17:13.772Z,83.30
2017-11-30T13:19:41.201Z,83.50
2017-11-30T13:22:08.632Z,83.30
2017-11-30T13:24:36.085Z,83.20
2017-11-30T13:27:03.718Z,83.40
2017-11-30T13:29:31.609Z,82.10
2017-11-30T13:31:59.050Z,81.20
2017-11-30T13:34:26.875Z,80.60
2017-11-30T13:36:54.314Z,80.90
2017-11-30T13:39:21.812Z,81.80
2017-11-30T13:41:49.304Z,81.80
2017-11-30T13:44:16.955Z,81.30
2017-11-30T13:46:44.385Z,81.30
2017-11-30T13:49:12.173Z,81.30
2017-11-30T13:51:39.585Z,81.80
2017-11-30T13:54:07.927Z,82.90
2017-11-30T13:56:35.382Z,82.90
2017-11-30T13:59:02.820Z,83.20
2017-11-30T14:01:30.293Z,82.90
2017-11-30T14:03:57.748Z,82.70
2017-11-30T14:06:25.214Z,82.40
2017-11-30T14:08:52.668Z,82.20
2017-11-30T14:11:20.139Z,82.40
2017-11-30T14:13:47.939Z,82.90
2017-11-30T14:16:15.400Z,82.70
2017-11-30T14:18:42.925Z,83.00
2017-11-30T14:21:10.396Z,83.10
2017-11-30T14:23:38.201Z,83.30
2017-11-30T14:26:05.667Z,83.90
2017-11-30T14:28:33.510Z,83.90
2017-11-30T14:31:00.992Z,83.60
2017-11-30T14:33:28.470Z,83.90
2017-11-30T14:35:56.018Z,83.40
2017-11-30T14:38:23.771Z,83.10
2017-11-30T14:40:51.240Z,83.60
2017-11-30T14:43:18.686Z,83.20
2017-11-30T14:45:46.149Z,83.10
2017-11-30T14:48:13.985Z,83.00
2017-11-30T14:50:41.500Z,82.80
2017-11-30T14:53:08.981Z,82.60
2017-11-30T14:55:36.732Z,83.20
2017-11-30T14:58:04.192Z,83.10
2017-11-30T15:00:31.633Z,82.90
2017-11-30T15:02:59.200Z,82.90
2017-11-30T15:05:26.664Z,82.70
2017-11-30T15:07:54.139Z,82.80
2017-11-30T15:10:21.630Z,83.80
2017-11-30T15:12:49.495Z,83.50
2017-11-30T15:15:17.328Z,84.00
2017-11-30T15:17:45.169Z,84.80
2017-11-30T15:20:12.681Z,85.20
2017-11-30T15:22:40.141Z,85.50
2017-11-30T15:25:07.589Z,86.00
2017-11-30T15:27:35.057Z,86.60
2017-11-30T15:30:02.537Z,87.00
2017-11-30T15:32:30.193Z,87.50
2017-11-30T15:34:59.182Z,88.20
2017-11-30T15:37:26.937Z,88.20
2017-11-30T15:39:54.476Z,88.80
2017-11-30T15:42:21.937Z,89.50
2017-11-30T15:44:49.377Z,90.00
2017-11-30T15:47:17.209Z,90.20
2017-11-30T15:49:44.657Z,90.40
2017-11-30T15:52:12.517Z,90.60
2017-11-30T15:54:40.389Z,90.80
2017-11-30T15:57:08.034Z,90.90
2017-11-30T15:59:35.504Z,91.00
2017-11-30T16:02:02.950Z,91.20
2017-11-30T16:04:30.668Z,91.30
2017-11-30T16:06:58.206Z,91.50
2017-11-30T16:09:25.642Z,91.70
2017-11-30T16:11:53.126Z,92.00
2017-11-30T16:14:20.570Z,92.10
2017-11-30T16:16:48.015Z,92.20
2017-11-30T16:19:15.471Z,92.20
2017-11-30T16:21:43.672Z,92.10
2017-11-30T16:24:11.213Z,92.10
2017-11-30T16:26:38.650Z,92.00
2017-11-30T16:29:06.498Z,92.10
2017-11-30T16:31:33.947Z,92.10
2017-11-30T16:34:01.384Z,92.60
2017-11-30T16:36:28.870Z,92.60
2017-11-30T16:38:56.360Z,92.70
2017-11-30T16:41:23.809Z,92.90
2017-11-30T16:43:51.272Z,92.90
2017-11-30T16:46:18.709Z,92.80
2017-11-30T16:48:46.188Z,92.90
2017-11-30T16:51:13.634Z,92.90
2017-11-30T16:53:41.070Z,93.10
2017-11-30T16:56:14.081Z,93.10
2017-11-30T16:58:41.774Z,92.80
2017-11-30T17:01:09.266Z,92.70
2017-11-30T17:03:36.721Z,92.90
2017-11-30T17:06:04.253Z,92.80
2017-11-30T17:08:31.980Z,92.80
2017-11-30T17:10:59.508Z,92.80
2017-11-30T17:13:26.968Z,92.90
2017-11-30T17:15:54.414Z,93.00
2017-11-30T17:18:21.853Z,93.20
2017-11-30T17:20:49.304Z,93.30
2017-11-30T17:23:16.737Z,93.20
2017-11-30T17:25:44.216Z,93.20
2017-11-30T17:28:11.729Z,92.90
2017-11-30T17:30:39.182Z,92.90
2017-11-30T17:33:06.671Z,93.00
2017-11-30T17:35:34.107Z,92.90
2017-11-30T17:38:01.578Z,92.80
2017-11-30T17:40:29.022Z,92.80
2017-11-30T17:42:56.492Z,92.70
2017-11-30T17:45:23.969Z,92.70
2017-11-30T17:47:51.416Z,92.70
2017-11-30T17:50:18.906Z,92.60
2017-11-30T17:52:46.349Z,92.60
2017-11-30T17:55:13.788Z,92.60
2017-11-30T17:57:41.246Z,92.50
2017-11-30T18:00:08.732Z,92.40
2017-11-30T18:02:36.468Z,92.40
2017-11-30T18:05:04.045Z,92.40
2017-11-30T18:07:31.494Z,92.40
2017-11-30T18:09:58.956Z,92.30
2017-11-30T18:12:26.440Z,92.40
2017-11-30T18:14:53.912Z,92.40
2017-11-30T18:17:21.370Z,92.40
2017-11-30T18:19:48.815Z,92.50
2017-11-30T18:22:16.380Z,92.60
2017-11-30T18:24:43.826Z,92.70
2017-11-30T18:27:11.259Z,92.70
2017-11-30T18:29:38.712Z,92.70
2017-11-30T18:32:06.144Z,92.80
2017-11-30T18:34:33.617Z,92.70
2017-11-30T18:37:01.056Z,92.60
2017-11-30T18:39:28.500Z,92.60
2017-11-30T18:41:55.952Z,92.90
2017-11-30T18:44:23.398Z,92.50
2017-11-30T18:46:51.749Z,92.40
2017-11-30T18:49:19.185Z,92.40
2017-11-30T18:51:46.643Z,92.40
2017-11-30T18:54:14.185Z,92.30
2017-11-30T18:56:41.649Z,92.20
2017-11-30T18:59:09.105Z,92.20
2017-11-30T19:01:36.553Z,92.10
2017-11-30T19:04:03.993Z,92.10
2017-11-30T19:06:31.814Z,92.10
2017-11-30T19:08:59.254Z,92.10
2017-11-30T19:11:26.769Z,92.10
2017-11-30T19:13:54.673Z,92.20
2017-11-30T19:16:22.101Z,92.20
2017-11-30T19:18:49.552Z,92.10
2017-11-30T19:21:17.065Z,92.20
2017-11-30T19:23:44.536Z,92.20
2017-11-30T19:26:11.972Z,92.40
2017-11-30T19:28:40.269Z,92.30
2017-11-30T19:31:07.728Z,92.30
2017-11-30T19:33:35.169Z,92.20
2017-11-30T19:36:02.646Z,92.20
2017-11-30T19:38:30.113Z,92.20
2017-11-30T19:40:57.559Z,92.30
2017-11-30T19:43:25.303Z,92.30
2017-11-30T19:45:52.909Z,92.30
2017-11-30T19:48:20.397Z,92.30
2017-11-30T19:50:47.826Z,92.40
2017-11-30T19:53:15.261Z,92.40
2017-11-30T19:55:42.900Z,92.40
2017-11-30T19:58:13.430Z,92.40
2017-11-30T20:00:40.913Z,92.40
2017-11-30T20:03:08.762Z,92.30
2017-11-30T20:05:36.196Z,92.30
2017-11-30T20:08:03.656Z,92.20
2017-11-30T20:10:31.092Z,92.20
2017-11-30T20:12:58.598Z,92.30
2017-11-30T20:15:26.037Z,92.30
2017-11-30T20:17:53.925Z,92.20
2017-11-30T20:20:21.400Z,92.20
2017-11-30T20:22:48.869Z,92.10
2017-11-30T20:25:16.309Z,92.10
2017-11-30T20:27:43.776Z,92.10
2017-11-30T20:30:11.236Z,92.20
2017-11-30T20:32:39.117Z,92.10
2017-11-30T20:35:06.558Z,92.20
2017-11-30T20:37:34.010Z,92.20
2017-11-30T20:40:01.458Z,92.20
2017-11-30T20:42:28.977Z,92.10
2017-11-30T20:44:56.504Z,91.90
2017-11-30T20:47:24.277Z,91.80
2017-11-30T20:49:51.833Z,91.70
2017-11-30T20:52:19.281Z,91.70
2017-11-30T20:54:46.717Z,91.60
2017-11-30T20:57:14.181Z,91.40
2017-11-30T20:59:41.614Z,91.30
2017-11-30T21:02:09.065Z,91.20
2017-11-30T21:04:36.522Z,91.10
2017-11-30T21:07:03.961Z,91.30
2017-11-30T21:09:31.430Z,91.20
2017-11-30T21:11:59.308Z,91.10
2017-11-30T21:14:26.765Z,91.10
2017-11-30T21:16:54.216Z,91.00
2017-11-30T21:19:21.664Z,91.00
2017-11-30T21:21:49.134Z,91.00
2017-11-30T21:24:16.580Z,91.10
2017-11-30T21:26:44.017Z,91.10
2017-11-30T21:29:11.545Z,91.10
2017-11-30T21:31:39.003Z,91.10
2017-11-30T21:34:06.461Z,91.00
2017-11-30T21:36:33.940Z,91.00
2017-11-30T21:39:01.397Z,90.90
2017-11-30T21:41:28.864Z,90.80
2017-11-30T21:43:56.310Z,90.60
2017-11-30T21:46:23.756Z,90.60
2017-11-30T21:48:51.207Z,90.60
2017-11-30T21:51:18.709Z,90.40
2017-11-30T21:53:46.188Z,90.30
2017-11-30T21:56:13.737Z,90.30
2017-11-30T21:58:41.172Z,90.30
2017-11-30T22:01:08.632Z,90.20
2017-11-30T22:03:36.086Z,90.20
2017-11-30T22:06:03.547Z,90.20
2017-11-30T22:08:30.992Z,90.10
2017-11-30T22:10:58.792Z,90.10
2017-11-30T22:13:26.248Z,89.80
2017-11-30T22:15:53.721Z,89.30
2017-11-30T22:18:21.188Z,89.30
2017-11-30T22:20:48.692Z,89.00
2017-11-30T22:23:16.093Z,88.90
2017-11-30T22:25:43.546Z,88.90
2017-11-30T22:28:11.020Z,88.90
2017-11-30T22:30:38.488Z,89.00
2017-11-30T22:33:05.934Z,89.10
2017-11-30T22:35:33.422Z,89.20
2017-11-30T22:38:00.865Z,89.20
2017-11-30T22:40:28.337Z,89.20
2017-11-30T22:42:55.812Z,89.40
2017-11-30T22:45:23.255Z,89.50
2017-11-30T22:47:50.699Z,89.40
2017-11-30T22:50:18.180Z,89.40
2017-11-30T22:52:45.640Z,89.10
2017-11-30T22:55:13.097Z,88.90
2017-11-30T22:57:40.556Z,89.00
2017-11-30T23:00:08.433Z,89.00
2017-11-30T23:02:35.919Z,88.90
2017-11-30T23:05:03.444Z,89.00
2017-11-30T23:07:31.231Z,89.00
2017-11-30T23:09:58.699Z,89.00
2017-11-30T23:12:26.156Z,89.30
2017-11-30T23:14:53.648Z,89.30
2017-11-30T23:17:21.089Z,89.50
2017-11-30T23:19:48.533Z,89.60
2017-11-30T23:22:15.992Z,89.30
2017-11-30T23:24:43.420Z,89.30
2017-11-30T23:27:11.054Z,89.40
2017-11-30T23:29:38.564Z,89.50
2017-11-30T23:32:06.244Z,89.40
2017-11-30T23:34:33.723Z,89.70
2017-11-30T23:37:01.170Z,89.60
2017-11-30T23:39:28.640Z,89.70
2017-11-30T23:41:56.080Z,89.90
2017-11-30T23:44:23.524Z,89.60
2017-11-30T23:46:51.117Z,89.60
2017-11-30T23:49:18.551Z,89.60
2017-11-30T23:51:46.012Z,89.80
2017-11-30T23:54:13.810Z,89.60
2017-11-30T23:56:41.282Z,89.60
2017-11-30T23:59:08.729Z,89.50
